sensor_id;sensor_type;location;lat;lon;timestamp;P1;durP1;ratioP1;P2;durP2;ratioP2
5297;SDS011;14738;42.668;23.250;2023-01-23T00:00:03;7.13;;;6.53;;
5297;SDS011;14738;42.668;23.250;2023-01-23T00:02:30;8.10;;;5.30;;
5297;SDS011;14738;42.668;23.250;2023-01-23T00:04:56;6.10;;;5.50;;
5297;SDS011;14738;42.668;23.250;2023-01-23T00:07:21;7.17;;;6.47;;
5297;SDS011;14738;42.668;23.250;2023-01-23T00:09:47;6.00;;;5.40;;
5297;SDS011;14738;42.668;23.250;2023-01-23T00:12:12;7.43;;;4.87;;
5297;SDS011;14738;42.668;23.250;2023-01-23T00:14:38;5.23;;;4.73;;
5297;SDS011;14738;42.668;23.250;2023-01-23T00:17:03;5.40;;;4.90;;
5297;SDS011;14738;42.668;23.250;2023-01-23T00:19:29;5.30;;;4.87;;
5297;SDS011;14738;42.668;23.250;2023-01-23T00:21:56;5.83;;;5.30;;
5297;SDS011;14738;42.668;23.250;2023-01-23T00:24:22;4.93;;;4.57;;
5297;SDS011;14738;42.668;23.250;2023-01-23T00:26:48;5.80;;;5.40;;
5297;SDS011;14738;42.668;23.250;2023-01-23T00:29:13;10.83;;;5.33;;
5297;SDS011;14738;42.668;23.250;2023-01-23T00:31:39;5.67;;;5.23;;
5297;SDS011;14738;42.668;23.250;2023-01-23T00:34:06;5.97;;;5.40;;
5297;SDS011;14738;42.668;23.250;2023-01-23T00:36:36;5.93;;;5.43;;
5297;SDS011;14738;42.668;23.250;2023-01-23T00:39:04;7.30;;;6.57;;
5297;SDS011;14738;42.668;23.250;2023-01-23T00:41:32;8.73;;;7.53;;
5297;SDS011;14738;42.668;23.250;2023-01-23T00:43:58;8.77;;;7.10;;
5297;SDS011;14738;42.668;23.250;2023-01-23T00:46:23;7.07;;;6.40;;
5297;SDS011;14738;42.668;23.250;2023-01-23T00:48:49;8.80;;;6.20;;
5297;SDS011;14738;42.668;23.250;2023-01-23T00:51:15;6.87;;;6.27;;
5297;SDS011;14738;42.668;23.250;2023-01-23T00:53:40;7.23;;;6.17;;
5297;SDS011;14738;42.668;23.250;2023-01-23T00:56:06;5.73;;;4.70;;
5297;SDS011;14738;42.668;23.250;2023-01-23T00:58:32;5.70;;;5.30;;
5297;SDS011;14738;42.668;23.250;2023-01-23T01:00:58;5.03;;;4.57;;
5297;SDS011;14738;42.668;23.250;2023-01-23T01:03:23;6.10;;;5.17;;
5297;SDS011;14738;42.668;23.250;2023-01-23T01:05:49;5.30;;;4.90;;
5297;SDS011;14738;42.668;23.250;2023-01-23T01:08:15;5.33;;;4.83;;
5297;SDS011;14738;42.668;23.250;2023-01-23T01:10:40;5.23;;;4.83;;
5297;SDS011;14738;42.668;23.250;2023-01-23T01:13:06;4.97;;;4.47;;
5297;SDS011;14738;42.668;23.250;2023-01-23T01:15:32;5.07;;;4.57;;
5297;SDS011;14738;42.668;23.250;2023-01-23T01:17:58;5.93;;;4.33;;
5297;SDS011;14738;42.668;23.250;2023-01-23T01:20:24;5.03;;;4.50;;
5297;SDS011;14738;42.668;23.250;2023-01-23T01:22:51;4.00;;;3.70;;
5297;SDS011;14738;42.668;23.250;2023-01-23T01:25:17;5.10;;;4.60;;
5297;SDS011;14738;42.668;23.250;2023-01-23T01:27:43;4.10;;;3.73;;
5297;SDS011;14738;42.668;23.250;2023-01-23T01:30:09;4.53;;;4.17;;
5297;SDS011;14738;42.668;23.250;2023-01-23T01:32:36;4.70;;;3.40;;
5297;SDS011;14738;42.668;23.250;2023-01-23T01:35:03;4.00;;;3.80;;
5297;SDS011;14738;42.668;23.250;2023-01-23T01:37:31;3.63;;;3.40;;
5297;SDS011;14738;42.668;23.250;2023-01-23T01:40:01;3.73;;;3.53;;
5297;SDS011;14738;42.668;23.250;2023-01-23T01:42:27;3.33;;;3.10;;
5297;SDS011;14738;42.668;23.250;2023-01-23T01:44:56;3.70;;;3.40;;
5297;SDS011;14738;42.668;23.250;2023-01-23T01:47:24;4.53;;;3.67;;
5297;SDS011;14738;42.668;23.250;2023-01-23T01:49:50;6.70;;;4.60;;
5297;SDS011;14738;42.668;23.250;2023-01-23T01:52:18;3.67;;;3.47;;
5297;SDS011;14738;42.668;23.250;2023-01-23T01:54:50;4.50;;;4.20;;
5297;SDS011;14738;42.668;23.250;2023-01-23T01:57:21;4.40;;;4.00;;
5297;SDS011;14738;42.668;23.250;2023-01-23T01:59:55;4.10;;;3.70;;
5297;SDS011;14738;42.668;23.250;2023-01-23T02:02:29;4.13;;;3.83;;
5297;SDS011;14738;42.668;23.250;2023-01-23T02:05:01;4.33;;;4.03;;
5297;SDS011;14738;42.668;23.250;2023-01-23T02:09:58;5.10;;;4.60;;
5297;SDS011;14738;42.668;23.250;2023-01-23T02:12:26;4.10;;;3.70;;
5297;SDS011;14738;42.668;23.250;2023-01-23T02:14:52;4.60;;;4.30;;
5297;SDS011;14738;42.668;23.250;2023-01-23T02:17:18;4.00;;;3.70;;
5297;SDS011;14738;42.668;23.250;2023-01-23T02:28:02;5.40;;;4.80;;
5297;SDS011;14738;42.668;23.250;2023-01-23T02:30:27;4.63;;;4.33;;
5297;SDS011;14738;42.668;23.250;2023-01-23T02:32:53;6.67;;;4.70;;
5297;SDS011;14738;42.668;23.250;2023-01-23T02:35:23;6.40;;;4.10;;
5297;SDS011;14738;42.668;23.250;2023-01-23T02:37:53;5.17;;;4.77;;
5297;SDS011;14738;42.668;23.250;2023-01-23T02:40:32;5.67;;;5.17;;
5297;SDS011;14738;42.668;23.250;2023-01-23T02:43:01;5.40;;;4.90;;
5297;SDS011;14738;42.668;23.250;2023-01-23T02:45:28;5.30;;;4.80;;
5297;SDS011;14738;42.668;23.250;2023-01-23T02:47:55;5.77;;;5.27;;
5297;SDS011;14738;42.668;23.250;2023-01-23T02:50:21;9.23;;;5.37;;
5297;SDS011;14738;42.668;23.250;2023-01-23T02:52:47;4.93;;;4.50;;
5297;SDS011;14738;42.668;23.250;2023-01-23T02:55:15;6.10;;;5.20;;
5297;SDS011;14738;42.668;23.250;2023-01-23T02:57:41;5.13;;;4.60;;
5297;SDS011;14738;42.668;23.250;2023-01-23T03:00:07;4.80;;;4.13;;
5297;SDS011;14738;42.668;23.250;2023-01-23T03:02:47;3.93;;;3.63;;
5297;SDS011;14738;42.668;23.250;2023-01-23T03:05:14;4.33;;;4.03;;
5297;SDS011;14738;42.668;23.250;2023-01-23T03:07:43;3.70;;;3.40;;
5297;SDS011;14738;42.668;23.250;2023-01-23T03:10:10;4.30;;;4.00;;
5297;SDS011;14738;42.668;23.250;2023-01-23T03:12:36;4.53;;;4.23;;
5297;SDS011;14738;42.668;23.250;2023-01-23T03:15:07;4.30;;;4.00;;
5297;SDS011;14738;42.668;23.250;2023-01-23T03:17:34;5.50;;;5.00;;
5297;SDS011;14738;42.668;23.250;2023-01-23T03:20:00;4.30;;;4.00;;
5297;SDS011;14738;42.668;23.250;2023-01-23T03:22:27;4.47;;;4.07;;
5297;SDS011;14738;42.668;23.250;2023-01-23T03:24:53;4.47;;;4.17;;
5297;SDS011;14738;42.668;23.250;2023-01-23T03:27:21;4.83;;;3.90;;
5297;SDS011;14738;42.668;23.250;2023-01-23T03:29:47;5.50;;;3.80;;
5297;SDS011;14738;42.668;23.250;2023-01-23T03:32:31;3.60;;;3.40;;
5297;SDS011;14738;42.668;23.250;2023-01-23T03:34:56;5.10;;;4.50;;
5297;SDS011;14738;42.668;23.250;2023-01-23T03:37:22;4.63;;;4.13;;
5297;SDS011;14738;42.668;23.250;2023-01-23T03:39:47;3.80;;;3.57;;
5297;SDS011;14738;42.668;23.250;2023-01-23T03:42:32;3.93;;;3.53;;
5297;SDS011;14738;42.668;23.250;2023-01-23T03:44:58;4.17;;;3.77;;
5297;SDS011;14738;42.668;23.250;2023-01-23T03:47:24;4.33;;;3.93;;
5297;SDS011;14738;42.668;23.250;2023-01-23T03:49:50;4.47;;;4.17;;
5297;SDS011;14738;42.668;23.250;2023-01-23T03:52:16;4.23;;;4.00;;
5297;SDS011;14738;42.668;23.250;2023-01-23T03:54:41;3.80;;;3.20;;
5297;SDS011;14738;42.668;23.250;2023-01-23T03:57:07;4.50;;;4.17;;
5297;SDS011;14738;42.668;23.250;2023-01-23T03:59:32;4.67;;;4.27;;
5297;SDS011;14738;42.668;23.250;2023-01-23T04:01:58;4.30;;;4.00;;
5297;SDS011;14738;42.668;23.250;2023-01-23T04:04:25;5.90;;;4.30;;
5297;SDS011;14738;42.668;23.250;2023-01-23T04:06:50;7.13;;;4.10;;
5297;SDS011;14738;42.668;23.250;2023-01-23T04:09:16;4.93;;;4.53;;
5297;SDS011;14738;42.668;23.250;2023-01-23T04:11:41;4.90;;;4.50;;
5297;SDS011;14738;42.668;23.250;2023-01-23T04:14:06;4.00;;;3.70;;
5297;SDS011;14738;42.668;23.250;2023-01-23T04:16:32;6.70;;;6.10;;
5297;SDS011;14738;42.668;23.250;2023-01-23T04:18:57;5.27;;;4.83;;
5297;SDS011;14738;42.668;23.250;2023-01-23T04:21:23;5.13;;;4.83;;
5297;SDS011;14738;42.668;23.250;2023-01-23T04:23:49;6.10;;;5.50;;
5297;SDS011;14738;42.668;23.250;2023-01-23T04:26:14;5.53;;;5.00;;
5297;SDS011;14738;42.668;23.250;2023-01-23T04:28:40;6.00;;;5.50;;
5297;SDS011;14738;42.668;23.250;2023-01-23T04:31:05;5.07;;;4.63;;
5297;SDS011;14738;42.668;23.250;2023-01-23T04:33:33;5.70;;;5.13;;
5297;SDS011;14738;42.668;23.250;2023-01-23T04:35:59;4.50;;;4.10;;
5297;SDS011;14738;42.668;23.250;2023-01-23T04:38:27;5.17;;;4.77;;
5297;SDS011;14738;42.668;23.250;2023-01-23T04:40:53;4.90;;;4.60;;
5297;SDS011;14738;42.668;23.250;2023-01-23T04:43:19;5.03;;;4.63;;
5297;SDS011;14738;42.668;23.250;2023-01-23T04:45:45;3.73;;;3.50;;
5297;SDS011;14738;42.668;23.250;2023-01-23T04:48:13;4.47;;;4.07;;
5297;SDS011;14738;42.668;23.250;2023-01-23T04:50:39;4.90;;;4.50;;
5297;SDS011;14738;42.668;23.250;2023-01-23T04:53:05;4.40;;;4.10;;
5297;SDS011;14738;42.668;23.250;2023-01-23T04:55:31;3.70;;;3.40;;
5297;SDS011;14738;42.668;23.250;2023-01-23T04:57:57;3.53;;;3.33;;
5297;SDS011;14738;42.668;23.250;2023-01-23T05:00:24;4.30;;;4.00;;
5297;SDS011;14738;42.668;23.250;2023-01-23T05:02:50;4.10;;;3.80;;
5297;SDS011;14738;42.668;23.250;2023-01-23T05:05:18;3.50;;;3.30;;
5297;SDS011;14738;42.668;23.250;2023-01-23T05:07:45;4.37;;;4.07;;
5297;SDS011;14738;42.668;23.250;2023-01-23T05:10:12;4.33;;;4.10;;
5297;SDS011;14738;42.668;23.250;2023-01-23T05:12:38;3.80;;;3.60;;
5297;SDS011;14738;42.668;23.250;2023-01-23T05:15:04;3.70;;;3.47;;
5297;SDS011;14738;42.668;23.250;2023-01-23T05:17:30;5.03;;;4.63;;
5297;SDS011;14738;42.668;23.250;2023-01-23T05:19:55;5.47;;;4.97;;
5297;SDS011;14738;42.668;23.250;2023-01-23T05:22:21;5.63;;;5.13;;
5297;SDS011;14738;42.668;23.250;2023-01-23T05:24:46;5.43;;;5.03;;
5297;SDS011;14738;42.668;23.250;2023-01-23T05:27:12;6.20;;;5.60;;
5297;SDS011;14738;42.668;23.250;2023-01-23T05:29:38;5.37;;;4.97;;
5297;SDS011;14738;42.668;23.250;2023-01-23T05:32:03;5.50;;;5.00;;
5297;SDS011;14738;42.668;23.250;2023-01-23T05:34:29;5.73;;;5.23;;
5297;SDS011;14738;42.668;23.250;2023-01-23T05:36:54;5.87;;;5.13;;
5297;SDS011;14738;42.668;23.250;2023-01-23T05:39:20;5.70;;;5.20;;
5297;SDS011;14738;42.668;23.250;2023-01-23T05:41:47;5.67;;;5.20;;
5297;SDS011;14738;42.668;23.250;2023-01-23T05:44:57;5.37;;;4.83;;
5297;SDS011;14738;42.668;23.250;2023-01-23T05:47:22;4.53;;;4.10;;
5297;SDS011;14738;42.668;23.250;2023-01-23T05:49:47;4.70;;;4.30;;
5297;SDS011;14738;42.668;23.250;2023-01-23T05:52:13;5.07;;;4.57;;
5297;SDS011;14738;42.668;23.250;2023-01-23T05:54:38;3.60;;;3.30;;
5297;SDS011;14738;42.668;23.250;2023-01-23T05:57:03;4.30;;;3.90;;
5297;SDS011;14738;42.668;23.250;2023-01-23T05:59:29;4.40;;;4.10;;
5297;SDS011;14738;42.668;23.250;2023-01-23T06:01:55;3.50;;;3.30;;
5297;SDS011;14738;42.668;23.250;2023-01-23T06:04:21;4.13;;;3.90;;
5297;SDS011;14738;42.668;23.250;2023-01-23T06:06:47;4.13;;;3.80;;
5297;SDS011;14738;42.668;23.250;2023-01-23T06:09:12;3.10;;;2.90;;
5297;SDS011;14738;42.668;23.250;2023-01-23T06:11:38;3.37;;;3.17;;
5297;SDS011;14738;42.668;23.250;2023-01-23T06:14:04;8.50;;;6.43;;
5297;SDS011;14738;42.668;23.250;2023-01-23T06:16:29;16.00;;;10.73;;
5297;SDS011;14738;42.668;23.250;2023-01-23T06:18:55;5.23;;;4.83;;
5297;SDS011;14738;42.668;23.250;2023-01-23T06:21:20;3.73;;;3.53;;
5297;SDS011;14738;42.668;23.250;2023-01-23T06:23:45;3.87;;;3.67;;
5297;SDS011;14738;42.668;23.250;2023-01-23T06:26:11;3.97;;;3.57;;
5297;SDS011;14738;42.668;23.250;2023-01-23T06:28:37;3.33;;;3.13;;
5297;SDS011;14738;42.668;23.250;2023-01-23T06:31:03;3.90;;;3.40;;
5297;SDS011;14738;42.668;23.250;2023-01-23T06:33:30;5.47;;;3.70;;
5297;SDS011;14738;42.668;23.250;2023-01-23T06:35:57;3.17;;;2.97;;
5297;SDS011;14738;42.668;23.250;2023-01-23T06:38:23;6.07;;;5.57;;
5297;SDS011;14738;42.668;23.250;2023-01-23T06:40:49;4.17;;;3.87;;
5297;SDS011;14738;42.668;23.250;2023-01-23T06:43:14;4.10;;;3.80;;
5297;SDS011;14738;42.668;23.250;2023-01-23T06:45:42;3.10;;;2.90;;
5297;SDS011;14738;42.668;23.250;2023-01-23T06:48:09;3.87;;;3.60;;
5297;SDS011;14738;42.668;23.250;2023-01-23T06:50:34;3.30;;;3.10;;
5297;SDS011;14738;42.668;23.250;2023-01-23T06:52:59;4.63;;;4.23;;
5297;SDS011;14738;42.668;23.250;2023-01-23T06:55:25;6.80;;;5.47;;
5297;SDS011;14738;42.668;23.250;2023-01-23T06:57:50;4.20;;;3.80;;
5297;SDS011;14738;42.668;23.250;2023-01-23T07:00:16;5.50;;;4.50;;
5297;SDS011;14738;42.668;23.250;2023-01-23T07:02:41;5.43;;;5.03;;
5297;SDS011;14738;42.668;23.250;2023-01-23T07:05:07;7.57;;;4.90;;
5297;SDS011;14738;42.668;23.250;2023-01-23T07:07:32;5.77;;;5.27;;
5297;SDS011;14738;42.668;23.250;2023-01-23T07:09:58;6.50;;;5.80;;
5297;SDS011;14738;42.668;23.250;2023-01-23T07:12:23;6.93;;;6.23;;
5297;SDS011;14738;42.668;23.250;2023-01-23T07:14:49;8.47;;;6.93;;
5297;SDS011;14738;42.668;23.250;2023-01-23T07:17:14;7.50;;;6.50;;
5297;SDS011;14738;42.668;23.250;2023-01-23T07:19:40;8.37;;;7.03;;
5297;SDS011;14738;42.668;23.250;2023-01-23T07:22:06;9.37;;;7.87;;
5297;SDS011;14738;42.668;23.250;2023-01-23T07:24:31;8.63;;;7.73;;
5297;SDS011;14738;42.668;23.250;2023-01-23T07:26:57;8.37;;;7.20;;
5297;SDS011;14738;42.668;23.250;2023-01-23T07:29:23;9.50;;;8.50;;
5297;SDS011;14738;42.668;23.250;2023-01-23T07:31:48;12.30;;;9.50;;
5297;SDS011;14738;42.668;23.250;2023-01-23T07:34:13;10.37;;;9.30;;
5297;SDS011;14738;42.668;23.250;2023-01-23T07:36:39;11.33;;;7.77;;
5297;SDS011;14738;42.668;23.250;2023-01-23T07:39:05;12.10;;;9.63;;
5297;SDS011;14738;42.668;23.250;2023-01-23T07:41:30;13.70;;;9.37;;
5297;SDS011;14738;42.668;23.250;2023-01-23T07:43:56;11.27;;;9.00;;
5297;SDS011;14738;42.668;23.250;2023-01-23T07:46:21;12.07;;;9.40;;
5297;SDS011;14738;42.668;23.250;2023-01-23T07:48:49;10.73;;;8.23;;
5297;SDS011;14738;42.668;23.250;2023-01-23T07:51:15;9.20;;;8.07;;
5297;SDS011;14738;42.668;23.250;2023-01-23T07:53:40;13.07;;;9.10;;
5297;SDS011;14738;42.668;23.250;2023-01-23T07:56:06;10.73;;;8.07;;
5297;SDS011;14738;42.668;23.250;2023-01-23T07:58:31;11.07;;;8.70;;
5297;SDS011;14738;42.668;23.250;2023-01-23T08:00:57;7.80;;;6.90;;
5297;SDS011;14738;42.668;23.250;2023-01-23T08:03:22;9.27;;;7.27;;
5297;SDS011;14738;42.668;23.250;2023-01-23T08:05:48;8.23;;;7.33;;
5297;SDS011;14738;42.668;23.250;2023-01-23T08:08:14;7.00;;;5.97;;
5297;SDS011;14738;42.668;23.250;2023-01-23T08:10:40;6.20;;;5.00;;
5297;SDS011;14738;42.668;23.250;2023-01-23T08:13:06;7.20;;;6.27;;
5297;SDS011;14738;42.668;23.250;2023-01-23T08:15:31;8.90;;;6.77;;
5297;SDS011;14738;42.668;23.250;2023-01-23T08:17:57;9.10;;;6.70;;
5297;SDS011;14738;42.668;23.250;2023-01-23T08:20:22;10.67;;;6.70;;
5297;SDS011;14738;42.668;23.250;2023-01-23T08:22:48;7.50;;;6.40;;
5297;SDS011;14738;42.668;23.250;2023-01-23T08:25:13;6.70;;;6.10;;
5297;SDS011;14738;42.668;23.250;2023-01-23T08:27:39;9.57;;;6.93;;
5297;SDS011;14738;42.668;23.250;2023-01-23T08:30:05;8.63;;;7.10;;
5297;SDS011;14738;42.668;23.250;2023-01-23T08:32:31;7.43;;;6.30;;
5297;SDS011;14738;42.668;23.250;2023-01-23T08:34:59;6.87;;;5.47;;
5297;SDS011;14738;42.668;23.250;2023-01-23T08:37:24;6.67;;;6.03;;
5297;SDS011;14738;42.668;23.250;2023-01-23T08:39:50;7.37;;;6.47;;
5297;SDS011;14738;42.668;23.250;2023-01-23T08:42:15;6.77;;;6.07;;
5297;SDS011;14738;42.668;23.250;2023-01-23T08:44:40;6.53;;;5.70;;
5297;SDS011;14738;42.668;23.250;2023-01-23T08:47:06;6.60;;;5.93;;
5297;SDS011;14738;42.668;23.250;2023-01-23T08:49:31;7.47;;;6.23;;
5297;SDS011;14738;42.668;23.250;2023-01-23T08:51:57;4.83;;;4.43;;
5297;SDS011;14738;42.668;23.250;2023-01-23T08:54:24;5.60;;;5.10;;
5297;SDS011;14738;42.668;23.250;2023-01-23T08:56:49;5.93;;;5.20;;
5297;SDS011;14738;42.668;23.250;2023-01-23T08:59:15;6.03;;;5.43;;
5297;SDS011;14738;42.668;23.250;2023-01-23T09:01:40;5.47;;;4.90;;
5297;SDS011;14738;42.668;23.250;2023-01-23T09:04:05;5.77;;;5.03;;
5297;SDS011;14738;42.668;23.250;2023-01-23T09:06:31;6.80;;;6.00;;
5297;SDS011;14738;42.668;23.250;2023-01-23T09:08:56;6.13;;;5.53;;
5297;SDS011;14738;42.668;23.250;2023-01-23T09:11:22;6.63;;;5.90;;
5297;SDS011;14738;42.668;23.250;2023-01-23T09:13:48;5.30;;;4.80;;
5297;SDS011;14738;42.668;23.250;2023-01-23T09:16:14;6.23;;;5.53;;
5297;SDS011;14738;42.668;23.250;2023-01-23T09:18:40;10.73;;;5.07;;
5297;SDS011;14738;42.668;23.250;2023-01-23T09:21:06;6.53;;;5.90;;
5297;SDS011;14738;42.668;23.250;2023-01-23T09:23:34;9.07;;;6.43;;
5297;SDS011;14738;42.668;23.250;2023-01-23T09:26:03;6.80;;;6.10;;
5297;SDS011;14738;42.668;23.250;2023-01-23T09:28:30;5.93;;;5.43;;
5297;SDS011;14738;42.668;23.250;2023-01-23T09:30:55;5.20;;;4.70;;
5297;SDS011;14738;42.668;23.250;2023-01-23T09:33:21;7.63;;;6.13;;
5297;SDS011;14738;42.668;23.250;2023-01-23T09:35:52;6.90;;;6.20;;
5297;SDS011;14738;42.668;23.250;2023-01-23T09:38:17;5.77;;;5.23;;
5297;SDS011;14738;42.668;23.250;2023-01-23T09:40:54;6.10;;;5.50;;
5297;SDS011;14738;42.668;23.250;2023-01-23T09:48:28;6.63;;;5.93;;
5297;SDS011;14738;42.668;23.250;2023-01-23T09:51:11;10.23;;;7.30;;
5297;SDS011;14738;42.668;23.250;2023-01-23T09:53:40;14.10;;;10.40;;
5297;SDS011;14738;42.668;23.250;2023-01-23T09:56:16;9.90;;;7.93;;
5297;SDS011;14738;42.668;23.250;2023-01-23T10:01:41;9.07;;;6.10;;
5297;SDS011;14738;42.668;23.250;2023-01-23T10:04:09;11.13;;;8.00;;
5297;SDS011;14738;42.668;23.250;2023-01-23T10:06:59;8.53;;;7.50;;
5297;SDS011;14738;42.668;23.250;2023-01-23T10:18:18;9.53;;;8.53;;
5297;SDS011;14738;42.668;23.250;2023-01-23T10:20:52;13.00;;;7.77;;
5297;SDS011;14738;42.668;23.250;2023-01-23T10:26:11;9.40;;;7.53;;
5297;SDS011;14738;42.668;23.250;2023-01-23T10:28:41;9.73;;;8.23;;
5297;SDS011;14738;42.668;23.250;2023-01-23T10:36:26;7.97;;;7.20;;
5297;SDS011;14738;42.668;23.250;2023-01-23T10:39:02;8.73;;;7.33;;
5297;SDS011;14738;42.668;23.250;2023-01-23T10:41:31;8.93;;;7.23;;
5297;SDS011;14738;42.668;23.250;2023-01-23T10:43:58;8.20;;;7.40;;
5297;SDS011;14738;42.668;23.250;2023-01-23T10:46:33;9.03;;;8.00;;
5297;SDS011;14738;42.668;23.250;2023-01-23T10:49:07;13.67;;;8.10;;
5297;SDS011;14738;42.668;23.250;2023-01-23T10:56:33;12.50;;;8.73;;
5297;SDS011;14738;42.668;23.250;2023-01-23T10:59:01;9.00;;;8.10;;
5297;SDS011;14738;42.668;23.250;2023-01-23T11:01:33;9.80;;;8.70;;
5297;SDS011;14738;42.668;23.250;2023-01-23T11:04:10;7.97;;;7.13;;
5297;SDS011;14738;42.668;23.250;2023-01-23T11:06:42;10.77;;;8.37;;
5297;SDS011;14738;42.668;23.250;2023-01-23T11:09:17;11.60;;;7.60;;
5297;SDS011;14738;42.668;23.250;2023-01-23T11:11:44;6.23;;;5.63;;
5297;SDS011;14738;42.668;23.250;2023-01-23T11:14:27;11.47;;;9.57;;
5297;SDS011;14738;42.668;23.250;2023-01-23T11:16:59;9.60;;;7.93;;
5297;SDS011;14738;42.668;23.250;2023-01-23T11:19:27;10.83;;;8.73;;
5297;SDS011;14738;42.668;23.250;2023-01-23T11:22:00;9.90;;;8.87;;
5297;SDS011;14738;42.668;23.250;2023-01-23T11:24:33;11.17;;;9.00;;
5297;SDS011;14738;42.668;23.250;2023-01-23T11:27:07;11.80;;;9.03;;
5297;SDS011;14738;42.668;23.250;2023-01-23T11:33:10;12.30;;;9.63;;
5297;SDS011;14738;42.668;23.250;2023-01-23T11:38:16;12.43;;;9.50;;
5297;SDS011;14738;42.668;23.250;2023-01-23T11:40:45;10.67;;;9.50;;
5297;SDS011;14738;42.668;23.250;2023-01-23T11:43:14;12.60;;;9.97;;
5297;SDS011;14738;42.668;23.250;2023-01-23T11:54:36;12.50;;;9.97;;
5297;SDS011;14738;42.668;23.250;2023-01-23T12:10:35;8.37;;;7.57;;
5297;SDS011;14738;42.668;23.250;2023-01-23T12:30:11;10.30;;;8.17;;
5297;SDS011;14738;42.668;23.250;2023-01-23T12:44:13;12.37;;;10.27;;
5297;SDS011;14738;42.668;23.250;2023-01-23T12:52:03;13.10;;;11.80;;
5297;SDS011;14738;42.668;23.250;2023-01-23T12:54:38;13.13;;;11.53;;
5297;SDS011;14738;42.668;23.250;2023-01-23T12:57:07;12.30;;;10.07;;
5297;SDS011;14738;42.668;23.250;2023-01-23T13:05:03;11.33;;;9.23;;
5297;SDS011;14738;42.668;23.250;2023-01-23T13:07:53;12.03;;;10.57;;
5297;SDS011;14738;42.668;23.250;2023-01-23T13:10:28;12.83;;;10.90;;
5297;SDS011;14738;42.668;23.250;2023-01-23T13:13:40;14.17;;;11.30;;
5297;SDS011;14738;42.668;23.250;2023-01-23T13:16:11;15.40;;;11.43;;
5297;SDS011;14738;42.668;23.250;2023-01-23T13:18:38;10.27;;;9.20;;
5297;SDS011;14738;42.668;23.250;2023-01-23T13:21:33;13.47;;;11.20;;
5297;SDS011;14738;42.668;23.250;2023-01-23T13:24:26;13.37;;;10.50;;
5297;SDS011;14738;42.668;23.250;2023-01-23T13:29:59;11.23;;;8.47;;
5297;SDS011;14738;42.668;23.250;2023-01-23T13:32:27;12.43;;;9.60;;
5297;SDS011;14738;42.668;23.250;2023-01-23T13:34:54;10.97;;;9.53;;
5297;SDS011;14738;42.668;23.250;2023-01-23T13:40:01;17.60;;;11.03;;
5297;SDS011;14738;42.668;23.250;2023-01-23T13:42:38;11.53;;;9.67;;
5297;SDS011;14738;42.668;23.250;2023-01-23T13:45:23;13.23;;;9.97;;
5297;SDS011;14738;42.668;23.250;2023-01-23T13:50:53;8.20;;;7.40;;
5297;SDS011;14738;42.668;23.250;2023-01-23T13:53:26;7.60;;;6.90;;
5297;SDS011;14738;42.668;23.250;2023-01-23T13:56:15;13.13;;;11.10;;
5297;SDS011;14738;42.668;23.250;2023-01-23T13:59:01;12.13;;;10.17;;
5297;SDS011;14738;42.668;23.250;2023-01-23T14:01:29;15.60;;;12.80;;
5297;SDS011;14738;42.668;23.250;2023-01-23T14:04:19;10.23;;;8.57;;
5297;SDS011;14738;42.668;23.250;2023-01-23T14:07:22;10.23;;;9.10;;
5297;SDS011;14738;42.668;23.250;2023-01-23T14:12:49;10.10;;;8.13;;
5297;SDS011;14738;42.668;23.250;2023-01-23T14:15:25;11.60;;;10.23;;
5297;SDS011;14738;42.668;23.250;2023-01-23T14:21:20;11.30;;;8.70;;
5297;SDS011;14738;42.668;23.250;2023-01-23T14:23:50;9.40;;;8.30;;
5297;SDS011;14738;42.668;23.250;2023-01-23T14:26:18;11.00;;;9.80;;
5297;SDS011;14738;42.668;23.250;2023-01-23T14:28:54;11.43;;;9.03;;
5297;SDS011;14738;42.668;23.250;2023-01-23T14:31:31;8.97;;;8.00;;
5297;SDS011;14738;42.668;23.250;2023-01-23T14:34:02;7.77;;;6.43;;
5297;SDS011;14738;42.668;23.250;2023-01-23T14:36:30;8.37;;;7.43;;
5297;SDS011;14738;42.668;23.250;2023-01-23T14:38:58;9.17;;;8.20;;
5297;SDS011;14738;42.668;23.250;2023-01-23T14:41:28;10.20;;;8.63;;
5297;SDS011;14738;42.668;23.250;2023-01-23T14:43:56;14.23;;;10.40;;
5297;SDS011;14738;42.668;23.250;2023-01-23T14:46:30;11.43;;;10.23;;
5297;SDS011;14738;42.668;23.250;2023-01-23T14:49:06;10.40;;;7.20;;
5297;SDS011;14738;42.668;23.250;2023-01-23T14:51:33;7.17;;;6.37;;
5297;SDS011;14738;42.668;23.250;2023-01-23T14:54:04;11.27;;;9.20;;
5297;SDS011;14738;42.668;23.250;2023-01-23T14:56:40;9.20;;;8.27;;
5297;SDS011;14738;42.668;23.250;2023-01-23T14:59:14;11.23;;;9.83;;
5297;SDS011;14738;42.668;23.250;2023-01-23T15:01:54;11.43;;;10.23;;
5297;SDS011;14738;42.668;23.250;2023-01-23T15:04:22;12.40;;;9.73;;
5297;SDS011;14738;42.668;23.250;2023-01-23T15:06:51;12.10;;;10.50;;
5297;SDS011;14738;42.668;23.250;2023-01-23T15:09:17;11.60;;;9.57;;
5297;SDS011;14738;42.668;23.250;2023-01-23T15:12:04;10.20;;;8.50;;
5297;SDS011;14738;42.668;23.250;2023-01-23T15:14:34;12.60;;;9.90;;
5297;SDS011;14738;42.668;23.250;2023-01-23T15:17:02;12.03;;;10.07;;
5297;SDS011;14738;42.668;23.250;2023-01-23T15:19:30;13.77;;;12.37;;
5297;SDS011;14738;42.668;23.250;2023-01-23T15:22:05;11.83;;;10.07;;
5297;SDS011;14738;42.668;23.250;2023-01-23T15:24:47;12.60;;;11.30;;
5297;SDS011;14738;42.668;23.250;2023-01-23T15:27:22;13.33;;;11.50;;
5297;SDS011;14738;42.668;23.250;2023-01-23T15:29:48;10.90;;;9.30;;
5297;SDS011;14738;42.668;23.250;2023-01-23T15:32:15;11.67;;;9.90;;
5297;SDS011;14738;42.668;23.250;2023-01-23T15:34:52;13.77;;;10.13;;
5297;SDS011;14738;42.668;23.250;2023-01-23T15:37:23;12.97;;;10.77;;
5297;SDS011;14738;42.668;23.250;2023-01-23T15:39:52;9.90;;;8.87;;
5297;SDS011;14738;42.668;23.250;2023-01-23T15:42:25;11.93;;;9.93;;
5297;SDS011;14738;42.668;23.250;2023-01-23T15:44:50;8.30;;;7.40;;
5297;SDS011;14738;42.668;23.250;2023-01-23T15:47:16;10.23;;;9.23;;
5297;SDS011;14738;42.668;23.250;2023-01-23T15:49:41;11.93;;;9.43;;
5297;SDS011;14738;42.668;23.250;2023-01-23T15:54:41;10.43;;;8.73;;
5297;SDS011;14738;42.668;23.250;2023-01-23T15:57:08;12.03;;;9.97;;
5297;SDS011;14738;42.668;23.250;2023-01-23T15:59:36;14.30;;;11.20;;
5297;SDS011;14738;42.668;23.250;2023-01-23T16:02:05;13.93;;;8.33;;
5297;SDS011;14738;42.668;23.250;2023-01-23T16:04:32;9.90;;;8.43;;
5297;SDS011;14738;42.668;23.250;2023-01-23T16:06:58;10.93;;;8.30;;
5297;SDS011;14738;42.668;23.250;2023-01-23T16:09:28;11.40;;;8.90;;
5297;SDS011;14738;42.668;23.250;2023-01-23T16:11:58;10.77;;;7.40;;
5297;SDS011;14738;42.668;23.250;2023-01-23T16:14:23;10.73;;;7.47;;
5297;SDS011;14738;42.668;23.250;2023-01-23T16:16:49;8.97;;;8.07;;
5297;SDS011;14738;42.668;23.250;2023-01-23T16:19:15;7.90;;;7.07;;
5297;SDS011;14738;42.668;23.250;2023-01-23T16:21:41;8.17;;;6.70;;
5297;SDS011;14738;42.668;23.250;2023-01-23T16:24:21;9.57;;;8.57;;
5297;SDS011;14738;42.668;23.250;2023-01-23T16:26:48;7.47;;;6.77;;
5297;SDS011;14738;42.668;23.250;2023-01-23T16:29:25;6.80;;;6.10;;
5297;SDS011;14738;42.668;23.250;2023-01-23T16:31:55;9.27;;;8.37;;
5297;SDS011;14738;42.668;23.250;2023-01-23T16:34:21;6.90;;;6.20;;
5297;SDS011;14738;42.668;23.250;2023-01-23T16:36:48;8.20;;;7.40;;
5297;SDS011;14738;42.668;23.250;2023-01-23T16:39:19;8.87;;;6.80;;
5297;SDS011;14738;42.668;23.250;2023-01-23T16:41:47;8.13;;;7.30;;
5297;SDS011;14738;42.668;23.250;2023-01-23T16:44:13;6.30;;;5.33;;
5297;SDS011;14738;42.668;23.250;2023-01-23T16:46:41;7.67;;;6.33;;
5297;SDS011;14738;42.668;23.250;2023-01-23T16:49:10;8.70;;;6.33;;
5297;SDS011;14738;42.668;23.250;2023-01-23T16:51:36;6.27;;;5.67;;
5297;SDS011;14738;42.668;23.250;2023-01-23T16:54:03;7.83;;;5.57;;
5297;SDS011;14738;42.668;23.250;2023-01-23T16:56:36;6.30;;;5.70;;